Погода Байанна неделю

Пара, Бразилия

23 - 29 июля
  • 23июля
    Сегодня
    +25°
    +35°
    Практически безоблачно
    ВремяПогодаТемператураВлажностьДавлениеВетер, м/сВероятность осадков
    00:00Ясно и безоблачно+26°C62 %758 мм2.4 м/с5 %
    03:00Ясно и безоблачно+25°C63 %758 мм2.5 м/с5 %
    06:00Ясно и безоблачно+24°C78 %758 мм1.7 м/с5 %
    09:00Ясно и безоблачно+29°C66 %759 мм1.1 м/с5 %
    12:00Ясно и безоблачно+33°C44 %758 мм2.0 м/с5 %
    15:00Практически безоблачно+34°C40 %757 мм2.7 м/с1 %
    18:00Ясно и безоблачно+31°C63 %757 мм0.8 м/с2 %
    21:00Ясно и безоблачно+29°C76 %758 мм2.0 м/с4 %
  • 24июля
    Среда
    +24°
    +35°
    Ясно и безоблачно
    ВремяПогодаТемператураВлажностьДавлениеВетер, м/сВероятность осадков
    00:00Небольшая облачность+27°C75 %759 мм2.3 м/с5 %
    03:00Облачно с прояснениями+26°C85 %758 мм2.4 м/с4 %
    06:00Облачно с прояснениями+25°C92 %758 мм1.7 м/с4 %
    09:00Ясно и безоблачно+29°C75 %760 мм1.6 м/с5 %
    12:00Ясно и безоблачно+34°C48 %759 мм1.4 м/с2 %
    15:00Ясно и безоблачно+35°C39 %757 мм2.0 м/с5 %
    18:00Ясно и безоблачно+32°C63 %757 мм0.9 м/с3 %
    21:00Практически безоблачно+30°C72 %759 мм1.8 м/с15 %
  • 25июля
    Четверг
    +24°
    +35°
    Ясно и безоблачно
    ВремяПогодаТемператураВлажностьДавлениеВетер, м/сВероятность осадков
    00:00Практически безоблачно+27°C79 %759 мм1.5 м/с21 %
    03:00Ясно и безоблачно+26°C87 %758 мм1.7 м/с8 %
    06:00Практически безоблачно+25°C93 %758 мм1.4 м/с4 %
    09:00Ясно и безоблачно+29°C73 %760 мм1.2 м/с4 %
    12:00Ясно и безоблачно+34°C47 %759 мм2.2 м/с19 %
    15:00Ясно и безоблачно+34°C40 %756 мм2.7 м/с22 %
    18:00Ясно и безоблачно+32°C62 %756 мм0.7 м/с8 %
    21:00Практически безоблачно+29°C69 %757 мм1.6 м/с10 %
  • 26июля
    Пятница
    +24°
    +34°
    Небольшая облачность
    ВремяПогодаТемператураВлажностьДавлениеВетер, м/сВероятность осадков
    00:00Ясно и безоблачно+27°C73 %758 мм1.5 м/с4 %
    03:00Ясно и безоблачно+26°C83 %757 мм2.0 м/с3 %
    06:00Ясно и безоблачно+25°C90 %757 мм1.5 м/с13 %
    09:00Небольшая облачность+29°C76 %759 мм2.2 м/с6 %
    12:00Практически безоблачно+33°C44 %758 мм2.4 м/с28 %
    15:00Небольшая облачность+33°C38 %756 мм2.7 м/с30 %
    18:00Облачно с прояснениями+32°C51 %756 мм2.0 м/с21 %
    21:00Практически безоблачно+29°C62 %757 мм2.0 м/с10 %
Мы используем cookies
Соглашаюсь